createdAt,value
2022-08-22T00:02:03.362Z,101437.38
2022-08-22T00:02:48.244Z,101471.88
2022-08-22T00:03:06.941Z,101443.78
2022-08-22T00:05:00.904Z,101436.66
2022-08-22T00:08:07.951Z,101435.81
2022-08-22T00:11:02.709Z,101435.09
2022-08-22T00:13:45.649Z,101441.66
2022-08-22T00:16:42.385Z,101447.25
2022-08-22T00:19:43.904Z,101441.28
2022-08-22T00:22:32.752Z,101443.91
2022-08-22T00:25:25.775Z,101444.88
2022-08-22T00:28:03.250Z,101431.53
2022-08-22T00:30:39.819Z,101441.84
2022-08-22T00:33:27.690Z,101445.81
2022-08-22T00:36:21.783Z,101439.28
2022-08-22T00:39:17.392Z,101441.53
2022-08-22T00:42:04.539Z,101439.72
2022-08-22T00:44:54.954Z,101438.69
2022-08-22T00:47:36.313Z,101436.19
2022-08-22T00:50:40.942Z,101439.47
2022-08-22T00:53:30.889Z,101445.56
2022-08-22T00:56:21.624Z,101449.69
2022-08-22T00:59:23.415Z,101434.88
2022-08-22T01:02:14.290Z,101444.34
2022-08-22T01:05:01.904Z,101443.69
2022-08-22T01:08:08.461Z,101446.41
2022-08-22T01:10:54.927Z,101440.47
2022-08-22T01:13:51.464Z,101447.06
2022-08-22T01:16:50.372Z,101437.78
2022-08-22T01:19:30.844Z,101437.94
2022-08-22T01:22:11.454Z,101442.34
2022-08-22T01:25:18.441Z,101437.78
2022-08-22T01:27:58.298Z,101440.94
2022-08-22T01:30:53.029Z,101441.81
2022-08-22T01:33:46.332Z,101436.00
2022-08-22T01:36:46.816Z,101438.06
2022-08-22T01:39:45.337Z,101433.34
2022-08-22T01:42:47.689Z,101441.56
2022-08-22T01:45:34.420Z,101439.75
2022-08-22T01:48:22.246Z,101435.09
2022-08-22T01:50:57.513Z,101434.91
2022-08-22T01:53:39.406Z,101433.72
2022-08-22T01:56:14.994Z,101422.16
2022-08-22T01:58:45.764Z,101426.50
2022-08-22T02:01:20.438Z,101430.06
2022-08-22T02:04:18.660Z,101428.03
2022-08-22T02:07:02.494Z,101425.53
2022-08-22T02:09:49.741Z,101423.25
2022-08-22T02:12:27.336Z,101419.00
2022-08-22T02:15:12.628Z,101420.19
2022-08-22T02:18:12.273Z,101416.63
2022-08-22T02:20:55.904Z,101423.91
2022-08-22T02:23:35.541Z,101427.88
2022-08-22T02:26:09.580Z,101417.78
2022-08-22T02:28:59.690Z,101421.81
2022-08-22T02:31:42.401Z,101416.28
2022-08-22T02:34:28.746Z,101413.47
2022-08-22T02:37:10.058Z,101412.09
2022-08-22T02:39:42.261Z,101415.75
2022-08-22T02:42:34.174Z,101411.66
2022-08-22T02:45:18.812Z,101408.88
2022-08-22T02:48:17.120Z,101410.63
2022-08-22T02:50:54.454Z,101411.75
2022-08-22T02:53:44.555Z,101411.19
2022-08-22T02:56:12.946Z,101405.84
2022-08-22T02:58:50.255Z,101400.00
2022-08-22T03:01:27.649Z,101407.41
2022-08-22T03:04:43.886Z,101409.56
2022-08-22T03:07:21.398Z,101406.81
2022-08-22T03:10:24.832Z,101412.16
2022-08-22T03:13:04.364Z,101415.72
2022-08-22T03:15:55.117Z,101410.84
2022-08-22T03:18:41.296Z,101400.16
2022-08-22T03:21:57.311Z,101399.84
2022-08-22T03:24:34.948Z,101398.25
2022-08-22T03:27:14.164Z,101389.69
2022-08-22T03:30:10.088Z,101390.56
2022-08-22T03:32:54.457Z,101392.13
2022-08-22T03:35:29.289Z,101389.84
2022-08-22T03:38:14.529Z,101395.13
2022-08-22T03:40:57.568Z,101404.38
2022-08-22T03:43:55.423Z,101389.06
2022-08-22T03:46:23.978Z,101393.75
2022-08-22T03:49:11.524Z,101391.69
2022-08-22T03:51:46.783Z,101387.00
2022-08-22T03:54:48.586Z,101384.19
2022-08-22T03:57:58.652Z,101388.81
2022-08-22T04:00:36.303Z,101383.28
2022-08-22T04:03:46.495Z,101385.72
2022-08-22T04:06:22.525Z,101384.31
2022-08-22T04:08:53.866Z,101385.41
2022-08-22T04:11:46.587Z,101383.88
2022-08-22T04:14:35.692Z,101383.13
2022-08-22T04:17:43.341Z,101385.84
2022-08-22T04:20:33.932Z,101387.50
2022-08-22T04:23:18.606Z,101393.28
2022-08-22T04:25:53.439Z,101395.88
2022-08-22T04:28:36.404Z,101399.66
2022-08-22T04:31:10.467Z,101399.13
2022-08-22T04:33:52.796Z,101401.59
2022-08-22T04:36:45.903Z,101403.97
2022-08-22T04:39:24.883Z,101401.06
2022-08-22T04:42:28.737Z,101398.94
2022-08-22T04:45:04.101Z,101394.06
2022-08-22T04:47:54.484Z,101402.53
2022-08-22T04:50:43.327Z,101398.78
2022-08-22T04:53:27.211Z,101406.06
2022-08-22T04:56:05.363Z,101413.97
2022-08-22T04:58:42.005Z,101410.47
2022-08-22T05:01:20.449Z,101417.97
2022-08-22T05:03:59.980Z,101420.03
2022-08-22T05:06:32.351Z,101419.19
2022-08-22T05:09:07.215Z,101422.91
2022-08-22T05:11:37.723Z,101420.53
2022-08-22T05:14:14.477Z,101425.19
2022-08-22T05:16:47.957Z,101415.94
2022-08-22T05:19:32.315Z,101419.56
2022-08-22T05:22:02.862Z,101422.91
2022-08-22T05:24:42.256Z,101426.09
2022-08-22T05:27:26.500Z,101419.44
2022-08-22T05:30:02.861Z,101419.22
2022-08-22T05:32:57.751Z,101417.41
2022-08-22T05:35:39.942Z,101414.56
2022-08-22T05:38:13.721Z,101424.31
2022-08-22T05:40:48.073Z,101432.09
2022-08-22T05:43:18.176Z,101436.75
2022-08-22T05:45:47.639Z,101421.59
2022-08-22T05:48:25.262Z,101426.13
2022-08-22T05:51:03.683Z,101426.72
2022-08-22T05:53:37.699Z,101425.22
2022-08-22T05:56:22.364Z,101427.63
2022-08-22T05:59:02.769Z,101419.75
2022-08-22T06:02:08.516Z,101420.84
2022-08-22T06:05:07.570Z,101422.03
2022-08-22T06:07:44.232Z,101414.81
2022-08-22T06:10:32.235Z,101422.25
2022-08-22T06:13:25.542Z,101425.63
2022-08-22T06:16:18.642Z,101423.44
2022-08-22T06:18:49.645Z,101432.53
2022-08-22T06:21:20.714Z,101426.84
2022-08-22T06:23:56.641Z,101427.72
2022-08-22T06:26:31.229Z,101437.00
2022-08-22T06:29:01.256Z,101429.41
2022-08-22T06:31:35.563Z,101429.81
2022-08-22T06:34:28.599Z,101422.41
2022-08-22T06:37:02.376Z,101428.19
2022-08-22T06:39:34.367Z,101430.00
2022-08-22T06:42:02.961Z,101435.06
2022-08-22T06:44:43.047Z,101430.72
2022-08-22T06:47:25.999Z,101435.50
2022-08-22T06:50:13.693Z,101444.09
2022-08-22T06:52:53.936Z,101440.53
2022-08-22T06:55:26.317Z,101447.81
2022-08-22T06:58:05.141Z,101453.59
2022-08-22T07:00:35.666Z,101450.41
2022-08-22T07:03:17.076Z,101454.78
2022-08-22T07:05:46.357Z,101456.84
2022-08-22T07:08:19.697Z,101455.69
2022-08-22T07:11:22.261Z,101460.31
2022-08-22T07:13:59.475Z,101456.06
2022-08-22T07:16:35.725Z,101457.81
2022-08-22T07:19:04.499Z,101459.78
2022-08-22T07:21:46.912Z,101455.63
2022-08-22T07:24:19.305Z,101457.34
2022-08-22T07:27:02.843Z,101464.22
2022-08-22T07:29:51.883Z,101453.41
2022-08-22T07:32:43.289Z,101456.16
2022-08-22T07:35:20.066Z,101451.66
2022-08-22T07:38:14.219Z,101450.97
2022-08-22T07:40:48.460Z,101441.72
2022-08-22T07:43:29.894Z,101446.25
2022-08-22T07:46:27.307Z,101440.47
2022-08-22T07:49:15.268Z,101446.22
2022-08-22T07:51:54.127Z,101442.47
2022-08-22T07:54:45.318Z,101446.50
2022-08-22T07:57:35.207Z,101443.13
2022-08-22T08:00:15.047Z,101444.63
2022-08-22T08:02:47.870Z,101446.28
2022-08-22T08:05:17.514Z,101441.75
2022-08-22T08:07:48.045Z,101441.16
2022-08-22T08:10:26.484Z,101444.72
2022-08-22T08:13:02.180Z,101428.88
2022-08-22T08:15:34.639Z,101424.38
2022-08-22T08:18:12.123Z,101426.88
2022-08-22T08:20:40.745Z,101427.72
2022-08-22T08:23:11.918Z,101418.44
2022-08-22T08:26:12.659Z,101419.50
2022-08-22T08:28:48.065Z,101424.47
2022-08-22T08:31:43.161Z,101427.41
2022-08-22T08:34:20.173Z,101416.69
2022-08-22T08:36:57.896Z,101421.47
2022-08-22T08:39:41.618Z,101422.66
2022-08-22T08:42:10.244Z,101423.47
2022-08-22T08:45:03.426Z,101427.78
2022-08-22T08:48:05.909Z,101421.47
2022-08-22T08:51:19.474Z,101429.81
2022-08-22T08:54:29.629Z,101426.31
2022-08-22T08:57:08.487Z,101418.31
2022-08-22T09:00:02.743Z,101411.97
2022-08-22T09:03:07.134Z,101416.75
2022-08-22T09:05:54.103Z,101410.44
2022-08-22T09:08:45.593Z,101413.94
2022-08-22T09:11:48.032Z,101414.13
2022-08-22T09:14:53.784Z,101407.88
2022-08-22T09:17:51.776Z,101411.91
2022-08-22T09:20:47.473Z,101413.94
2022-08-22T09:23:48.628Z,101419.56
2022-08-22T09:26:29.283Z,101408.88
2022-08-22T09:29:14.584Z,101415.69
2022-08-22T09:32:03.369Z,101415.78
2022-08-22T09:34:45.930Z,101420.22
2022-08-22T09:37:25.788Z,101416.50
2022-08-22T09:40:03.990Z,101414.97
2022-08-22T09:42:51.269Z,101411.38
2022-08-22T09:45:53.105Z,101410.66
2022-08-22T09:48:30.415Z,101411.56
2022-08-22T09:51:31.760Z,101412.84
2022-08-22T09:54:07.504Z,101413.69
2022-08-22T09:56:59.602Z,101409.72
2022-08-22T09:59:54.966Z,101421.16
2022-08-22T10:02:34.379Z,101411.06
2022-08-22T10:05:35.183Z,101405.44
2022-08-22T10:08:11.689Z,101405.22
2022-08-22T10:11:21.121Z,101406.41
2022-08-22T10:14:01.237Z,101402.50
2022-08-22T10:16:56.912Z,101396.81
2022-08-22T10:19:53.326Z,101393.63
2022-08-22T10:22:34.034Z,101398.28
2022-08-22T10:25:24.418Z,101392.59
2022-08-22T10:28:24.094Z,101397.56
2022-08-22T10:31:12.187Z,101390.50
2022-08-22T10:34:02.330Z,101389.75
2022-08-22T10:37:08.329Z,101379.09
2022-08-22T10:39:53.897Z,101387.13
2022-08-22T10:42:31.263Z,101391.97
2022-08-22T10:45:15.561Z,101386.28
2022-08-22T10:47:58.798Z,101379.22
2022-08-22T10:50:43.053Z,101368.34
2022-08-22T10:54:02.869Z,101369.97
2022-08-22T10:57:06.680Z,101374.78
2022-08-22T11:00:12.283Z,101376.97
2022-08-22T11:02:54.999Z,101381.47
2022-08-22T11:05:35.389Z,101371.78
2022-08-22T11:08:40.371Z,101382.06
2022-08-22T11:11:38.316Z,101375.44
2022-08-22T11:14:37.727Z,101381.19
2022-08-22T11:17:34.601Z,101372.69
2022-08-22T11:20:13.256Z,101369.97
2022-08-22T11:23:08.575Z,101368.56
2022-08-22T11:25:54.792Z,101362.84
2022-08-22T11:28:51.895Z,101368.38
2022-08-22T11:31:47.188Z,101370.75
2022-08-22T11:34:40.184Z,101370.00
2022-08-22T11:37:43.364Z,101365.03
2022-08-22T11:40:33.081Z,101358.97
2022-08-22T11:43:21.703Z,101363.69
2022-08-22T11:45:57.019Z,101357.91
2022-08-22T11:48:31.608Z,101356.53
2022-08-22T11:51:25.059Z,101351.00
2022-08-22T11:54:07.354Z,101349.88
2022-08-22T11:56:45.141Z,101359.53
2022-08-22T11:59:19.681Z,101352.34
2022-08-22T12:01:59.352Z,101345.88
2022-08-22T12:04:38.171Z,101335.22
2022-08-22T12:07:18.873Z,101335.66
2022-08-22T12:10:13.783Z,101346.81
2022-08-22T12:13:02.376Z,101352.34
2022-08-22T12:15:57.574Z,101340.78
2022-08-22T12:18:26.620Z,101347.13
2022-08-22T12:21:03.378Z,101349.91
2022-08-22T12:23:57.709Z,101350.44
2022-08-22T12:27:07.825Z,101351.28
2022-08-22T12:30:04.406Z,101352.94
2022-08-22T12:32:49.298Z,101348.25
2022-08-22T12:35:29.657Z,101343.28
2022-08-22T12:38:02.064Z,101349.34
2022-08-22T12:40:36.991Z,101346.84
2022-08-22T12:43:18.794Z,101345.19
2022-08-22T12:46:06.449Z,101344.91
2022-08-22T12:49:07.565Z,101330.56
2022-08-22T12:52:04.585Z,101331.91
2022-08-22T12:55:10.792Z,101330.78
2022-08-22T12:57:58.870Z,101334.31
2022-08-22T13:00:36.826Z,101321.31
2022-08-22T13:03:21.632Z,101322.19
2022-08-22T13:05:59.824Z,101337.69
2022-08-22T13:08:47.546Z,101331.69
2022-08-22T13:11:23.220Z,101326.44
2022-08-22T13:14:00.951Z,101319.75
2022-08-22T13:16:48.668Z,101320.84
2022-08-22T13:19:25.569Z,101323.25
2022-08-22T13:22:21.833Z,101319.78
2022-08-22T13:24:57.547Z,101326.41
2022-08-22T13:27:35.164Z,101317.22
2022-08-22T13:30:12.374Z,101311.63
2022-08-22T13:32:46.377Z,101317.91
2022-08-22T13:35:23.881Z,101311.06
2022-08-22T13:37:58.746Z,101309.72
2022-08-22T13:40:30.678Z,101302.31
2022-08-22T13:43:12.005Z,101303.91
2022-08-22T13:45:50.079Z,101301.44
2022-08-22T13:48:23.784Z,101290.38
2022-08-22T13:51:14.529Z,101288.75
2022-08-22T13:53:58.105Z,101283.97
2022-08-22T13:56:47.259Z,101295.78
2022-08-22T13:59:49.660Z,101288.53
2022-08-22T14:02:36.729Z,101290.78
2022-08-22T14:05:11.232Z,101290.53
2022-08-22T14:08:18.391Z,101289.41
2022-08-22T14:11:02.098Z,101288.03
2022-08-22T14:13:44.388Z,101289.41
2022-08-22T14:16:33.387Z,101283.28
2022-08-22T14:19:11.063Z,101287.16
2022-08-22T14:21:47.582Z,101278.31
2022-08-22T14:24:19.238Z,101283.03
2022-08-22T14:27:07.009Z,101285.41
2022-08-22T14:29:41.717Z,101289.81
2022-08-22T14:32:32.669Z,101291.44
2022-08-22T14:35:21.423Z,101286.34
2022-08-22T14:37:55.908Z,101280.53
2022-08-22T14:40:36.265Z,101277.88
2022-08-22T14:43:40.556Z,101278.25
2022-08-22T14:46:18.601Z,101272.78
2022-08-22T14:48:50.712Z,101272.59
2022-08-22T14:51:23.648Z,101276.59
2022-08-22T14:53:52.736Z,101266.38
2022-08-22T14:56:27.680Z,101279.44
2022-08-22T14:59:37.858Z,101271.28
2022-08-22T15:02:18.718Z,101268.66
2022-08-22T15:04:51.615Z,101262.56
2022-08-22T15:07:26.333Z,101266.03
2022-08-22T15:10:01.225Z,101266.69
2022-08-22T15:12:35.618Z,101265.09
2022-08-22T15:15:14.445Z,101260.97
2022-08-22T15:17:46.425Z,101262.53
2022-08-22T15:20:38.287Z,101261.69
2022-08-22T15:23:23.246Z,101264.81
2022-08-22T15:26:04.100Z,101257.13
2022-08-22T15:28:53.333Z,101253.44
2022-08-22T15:31:22.835Z,101249.88
2022-08-22T15:33:52.366Z,101257.41
2022-08-22T15:36:22.906Z,101243.22
2022-08-22T15:38:56.593Z,101239.28
2022-08-22T15:41:31.371Z,101238.47
2022-08-22T15:44:30.947Z,101237.38
2022-08-22T15:47:10.895Z,101233.59
2022-08-22T15:49:58.543Z,101236.81
2022-08-22T15:52:55.776Z,101233.25
2022-08-22T15:55:35.432Z,101229.69
2022-08-22T15:58:21.776Z,101230.50
2022-08-22T16:01:05.407Z,101218.44
2022-08-22T16:03:58.944Z,101225.66
2022-08-22T16:06:49.268Z,101220.84
2022-08-22T16:09:37.992Z,101215.38
2022-08-22T16:12:27.352Z,101212.69
2022-08-22T16:14:56.153Z,101208.28
2022-08-22T16:17:30.712Z,101203.34
2022-08-22T16:20:10.009Z,101212.72
2022-08-22T16:22:58.158Z,101201.78
2022-08-22T16:25:45.285Z,101211.22
2022-08-22T16:28:57.241Z,101205.69
2022-08-22T16:31:33.835Z,101205.06
2022-08-22T16:34:17.699Z,101193.69
2022-08-22T16:37:22.273Z,101195.81
2022-08-22T16:39:50.748Z,101194.44
2022-08-22T16:42:21.803Z,101196.03
2022-08-22T16:44:57.930Z,101187.28
2022-08-22T16:47:33.315Z,101192.25
2022-08-22T16:50:23.373Z,101184.47
2022-08-22T16:52:59.656Z,101186.66
2022-08-22T16:55:35.850Z,101183.81
2022-08-22T16:58:16.498Z,101181.31
2022-08-22T17:00:59.444Z,101182.19
2022-08-22T17:03:58.477Z,101174.34
2022-08-22T17:07:14.884Z,101178.28
2022-08-22T17:09:51.256Z,101181.97
2022-08-22T17:12:44.405Z,101177.47
2022-08-22T17:15:34.005Z,101183.31
2022-08-22T17:18:27.475Z,101178.03
2022-08-22T17:21:12.093Z,101173.59
2022-08-22T17:23:51.699Z,101174.13
2022-08-22T17:26:29.537Z,101182.81
2022-08-22T17:29:39.728Z,101170.81
2022-08-22T17:32:17.658Z,101175.75
2022-08-22T17:34:49.593Z,101177.69
2022-08-22T17:37:49.344Z,101182.84
2022-08-22T17:40:28.168Z,101171.59
2022-08-22T17:43:49.376Z,101179.34
2022-08-22T17:47:08.013Z,101175.75
2022-08-22T17:50:11.159Z,101182.00
2022-08-22T17:52:57.454Z,101188.38
2022-08-22T17:55:52.704Z,101186.72
2022-08-22T17:58:37.505Z,101185.34
2022-08-22T18:01:50.539Z,101184.00
2022-08-22T18:04:43.364Z,101184.31
2022-08-22T18:07:15.913Z,101184.31
2022-08-22T18:10:23.304Z,101191.22
2022-08-22T18:13:10.640Z,101192.00
2022-08-22T18:15:57.510Z,101189.81
2022-08-22T18:18:39.998Z,101190.06
2022-08-22T18:21:36.917Z,101205.25
2022-08-22T18:24:24.893Z,101195.06
2022-08-22T18:27:01.358Z,101187.63
2022-08-22T18:30:02.521Z,101196.19
2022-08-22T18:32:47.872Z,101192.00
2022-08-22T18:35:22.977Z,101200.84
2022-08-22T18:38:00.360Z,101200.56
2022-08-22T18:40:32.063Z,101205.28
2022-08-22T18:43:40.734Z,101205.53
2022-08-22T18:46:37.329Z,101206.66
2022-08-22T18:49:24.095Z,101211.06
2022-08-22T18:52:26.805Z,101215.75
2022-08-22T18:54:57.993Z,101214.91
2022-08-22T18:57:55.067Z,101214.41
2022-08-22T19:00:46.538Z,101216.03
2022-08-22T19:03:36.112Z,101219.06
2022-08-22T19:06:33.076Z,101221.81
2022-08-22T19:09:23.781Z,101226.50
2022-08-22T19:12:14.474Z,101222.34
2022-08-22T19:14:58.561Z,101222.34
2022-08-22T19:17:26.993Z,101231.38
2022-08-22T19:20:44.042Z,101236.41
2022-08-22T19:23:34.226Z,101233.25
2022-08-22T19:26:24.249Z,101231.50
2022-08-22T19:28:56.922Z,101241.16
2022-08-22T19:31:41.190Z,101238.75
2022-08-22T19:34:32.051Z,101238.56
2022-08-22T19:37:30.465Z,101242.38
2022-08-22T19:40:07.116Z,101234.31
2022-08-22T19:42:38.491Z,101238.84
2022-08-22T19:45:18.485Z,101239.56
2022-08-22T19:48:00.469Z,101242.28
2022-08-22T19:50:34.038Z,101235.63
2022-08-22T19:53:58.738Z,101232.34
2022-08-22T19:56:48.460Z,101230.13
2022-08-22T19:59:35.342Z,101230.16
2022-08-22T20:02:16.479Z,101229.06
2022-08-22T20:05:29.614Z,101226.59
2022-08-22T20:08:26.277Z,101225.78
2022-08-22T20:11:28.201Z,101228.22
2022-08-22T20:14:30.701Z,101231.19
2022-08-22T20:17:12.851Z,101226.38
2022-08-22T20:20:16.425Z,101226.16
2022-08-22T20:22:44.043Z,101233.06
2022-08-22T20:25:42.957Z,101230.81
2022-08-22T20:28:13.505Z,101238.22
2022-08-22T20:30:57.908Z,101238.41
2022-08-22T20:33:40.019Z,101229.56
2022-08-22T20:36:27.412Z,101220.06
2022-08-22T20:39:05.885Z,101232.16
2022-08-22T20:41:38.964Z,101231.25
2022-08-22T20:44:21.688Z,101228.50
2022-08-22T20:47:19.514Z,101230.63
2022-08-22T20:50:03.212Z,101228.19
2022-08-22T20:52:54.344Z,101227.47
2022-08-22T20:55:31.619Z,101221.59
2022-08-22T20:58:05.082Z,101223.78
2022-08-22T21:00:42.186Z,101220.88
2022-08-22T21:03:15.529Z,101222.22
2022-08-22T21:05:45.333Z,101229.09
2022-08-22T21:08:24.679Z,101220.53
2022-08-22T21:11:22.130Z,101226.28
2022-08-22T21:13:51.916Z,101225.88
2022-08-22T21:16:33.323Z,101219.03
2022-08-22T21:19:01.970Z,101211.78
2022-08-22T21:21:33.932Z,101211.28
2022-08-22T21:24:06.098Z,101218.66
2022-08-22T21:26:37.370Z,101216.59
2022-08-22T21:29:14.672Z,101224.19
2022-08-22T21:31:59.313Z,101224.19
2022-08-22T21:34:52.085Z,101211.78
2022-08-22T21:37:44.443Z,101214.06
2022-08-22T21:40:45.330Z,101204.94
2022-08-22T21:43:36.857Z,101222.13
2022-08-22T21:46:06.990Z,101209.06
2022-08-22T21:48:40.107Z,101205.91
2022-08-22T21:51:30.680Z,101207.13
2022-08-22T21:54:31.138Z,101206.13
2022-08-22T21:57:15.484Z,101216.63
2022-08-22T21:59:59.348Z,101211.94
2022-08-22T22:02:37.495Z,101216.75
2022-08-22T22:05:11.498Z,101216.91
2022-08-22T22:07:42.709Z,101212.25
2022-08-22T22:10:15.903Z,101218.91
2022-08-22T22:12:46.641Z,101224.03
2022-08-22T22:15:19.133Z,101223.75
2022-08-22T22:17:47.698Z,101218.31
2022-08-22T22:20:18.335Z,101219.66
2022-08-22T22:22:47.471Z,101221.03
2022-08-22T22:25:39.178Z,101219.13
2022-08-22T22:28:25.045Z,101216.88
2022-08-22T22:30:53.567Z,101223.09
2022-08-22T22:33:30.549Z,101209.91
2022-08-22T22:36:03.372Z,101216.81
2022-08-22T22:38:31.812Z,101211.09
2022-08-22T22:41:01.232Z,101210.09
2022-08-22T22:43:29.713Z,101213.72
2022-08-22T22:46:00.539Z,101217.00
2022-08-22T22:48:29.303Z,101215.56
2022-08-22T22:50:57.821Z,101217.19
2022-08-22T22:53:33.646Z,101224.03
2022-08-22T22:56:11.215Z,101217.38
2022-08-22T22:58:40.824Z,101214.56
2022-08-22T23:01:16.195Z,101221.94
2022-08-22T23:03:45.638Z,101223.09
2022-08-22T23:06:17.525Z,101218.66
2022-08-22T23:08:47.127Z,101218.59
2022-08-22T23:11:20.165Z,101214.81
2022-08-22T23:13:48.865Z,101223.28
2022-08-22T23:16:24.517Z,101216.34
2022-08-22T23:18:53.025Z,101215.13
2022-08-22T23:21:28.648Z,101214.38
2022-08-22T23:23:59.522Z,101216.91
2022-08-22T23:26:28.974Z,101217.22
2022-08-22T23:28:57.762Z,101213.09
2022-08-22T23:31:37.004Z,101217.16
2022-08-22T23:34:11.662Z,101205.69
2022-08-22T23:36:42.542Z,101201.06
2022-08-22T23:39:13.493Z,101210.03
2022-08-22T23:41:42.731Z,101210.28
2022-08-22T23:44:13.517Z,101204.38
2022-08-22T23:46:43.187Z,101193.06
2022-08-22T23:49:12.730Z,101192.22
2022-08-22T23:51:42.317Z,101188.16
2022-08-22T23:54:11.521Z,101194.53
2022-08-22T23:56:58.369Z,101191.81
2022-08-22T23:59:34.888Z,101196.38
